Glasgow, United Kingdom
Current Conditions -  °F | °C
As of 3:20 PM on Thursday 23 Oct 2014 (Local Time) from EGPF Reporting Station
Light Rain Light Rain  
Wind Chill: 55°   Ceiling: 1000
Heat Index: 55°   Visibility: 2.4mi
Dew Point: 54°   Wind: 17mph
Humidity: 94%   Direction: 220°SW
Pressure: 29.74"   Gusts: NA
Location:  55.87°N, 4.26°W
Report Text: EGPF 231420Z AUTO 22015KT 3900 -RA BKN010/// //////TCU 13/12 Q1007 REDZ
Loading
Personal Weather Stations






























Interactive Weather Map
Tropical Storm Tracking
New forecast layout! Learn more

10-Day Weather Forecast

Advertisements
Track Severe Weather on mobile